sensor_id;sensor_type;location;lat;lon;timestamp;temperature;humidity
53643;DHT22;39546;45.534;12.048;2022-10-14T00:05:03;17.20;80.00
53643;DHT22;39546;45.534;12.048;2022-10-14T00:11:13;17.10;80.30
53643;DHT22;39546;45.534;12.048;2022-10-14T00:17:16;17.10;80.50
53643;DHT22;39546;45.534;12.048;2022-10-14T00:23:18;17.00;80.60
53643;DHT22;39546;45.534;12.048;2022-10-14T00:29:20;17.00;80.60
53643;DHT22;39546;45.534;12.048;2022-10-14T00:35:22;17.00;80.60
53643;DHT22;39546;45.534;12.048;2022-10-14T00:41:29;17.00;80.60
53643;DHT22;39546;45.534;12.048;2022-10-14T00:47:31;16.90;80.50
53643;DHT22;39546;45.534;12.048;2022-10-14T00:53:35;16.90;80.50
53643;DHT22;39546;45.534;12.048;2022-10-14T00:59:38;16.80;80.50
53643;DHT22;39546;45.534;12.048;2022-10-14T01:05:52;16.80;80.60
53643;DHT22;39546;45.534;12.048;2022-10-14T01:12:19;16.80;80.70
53643;DHT22;39546;45.534;12.048;2022-10-14T01:31:26;16.70;80.60
53643;DHT22;39546;45.534;12.048;2022-10-14T01:37:32;16.50;80.50
53643;DHT22;39546;45.534;12.048;2022-10-14T01:43:39;16.40;80.60
53643;DHT22;39546;45.534;12.048;2022-10-14T01:49:51;16.40;80.90
53643;DHT22;39546;45.534;12.048;2022-10-14T01:55:55;16.50;80.80
53643;DHT22;39546;45.534;12.048;2022-10-14T02:01:58;16.40;80.70
53643;DHT22;39546;45.534;12.048;2022-10-14T02:08:28;16.30;80.80
53643;DHT22;39546;45.534;12.048;2022-10-14T02:14:53;16.30;80.70
53643;DHT22;39546;45.534;12.048;2022-10-14T02:27:15;16.30;80.90
53643;DHT22;39546;45.534;12.048;2022-10-14T02:33:25;16.20;81.00
53643;DHT22;39546;45.534;12.048;2022-10-14T02:39:31;16.10;81.00
53643;DHT22;39546;45.534;12.048;2022-10-14T02:45:43;16.10;81.00
53643;DHT22;39546;45.534;12.048;2022-10-14T02:51:45;16.10;80.90
53643;DHT22;39546;45.534;12.048;2022-10-14T02:57:46;16.10;80.80
53643;DHT22;39546;45.534;12.048;2022-10-14T03:03:48;16.10;80.80
53643;DHT22;39546;45.534;12.048;2022-10-14T03:09:51;16.10;80.70
53643;DHT22;39546;45.534;12.048;2022-10-14T03:15:54;16.10;80.70
53643;DHT22;39546;45.534;12.048;2022-10-14T03:21:56;16.00;80.70
53643;DHT22;39546;45.534;12.048;2022-10-14T03:28:00;16.00;80.80
53643;DHT22;39546;45.534;12.048;2022-10-14T03:34:06;15.90;80.80
53643;DHT22;39546;45.534;12.048;2022-10-14T03:40:09;15.80;80.90
53643;DHT22;39546;45.534;12.048;2022-10-14T03:46:12;15.80;80.80
53643;DHT22;39546;45.534;12.048;2022-10-14T03:52:14;15.80;80.90
53643;DHT22;39546;45.534;12.048;2022-10-14T03:58:17;15.80;80.90
53643;DHT22;39546;45.534;12.048;2022-10-14T04:04:21;15.80;81.30
53643;DHT22;39546;45.534;12.048;2022-10-14T04:10:23;15.80;81.60
53643;DHT22;39546;45.534;12.048;2022-10-14T04:16:25;15.70;81.90
53643;DHT22;39546;45.534;12.048;2022-10-14T04:22:28;15.70;82.10
53643;DHT22;39546;45.534;12.048;2022-10-14T04:28:42;15.70;82.10
53643;DHT22;39546;45.534;12.048;2022-10-14T04:34:44;15.60;82.10
53643;DHT22;39546;45.534;12.048;2022-10-14T04:40:48;15.70;81.80
53643;DHT22;39546;45.534;12.048;2022-10-14T04:46:50;15.70;81.60
53643;DHT22;39546;45.534;12.048;2022-10-14T04:52:52;15.60;81.80
53643;DHT22;39546;45.534;12.048;2022-10-14T04:58:54;15.60;81.90
53643;DHT22;39546;45.534;12.048;2022-10-14T05:05:03;15.50;81.90
53643;DHT22;39546;45.534;12.048;2022-10-14T05:11:06;15.50;81.80
53643;DHT22;39546;45.534;12.048;2022-10-14T05:17:10;15.50;81.60
53643;DHT22;39546;45.534;12.048;2022-10-14T05:23:13;15.50;81.80
53643;DHT22;39546;45.534;12.048;2022-10-14T05:29:16;15.50;81.80
53643;DHT22;39546;45.534;12.048;2022-10-14T05:35:19;15.50;81.60
53643;DHT22;39546;45.534;12.048;2022-10-14T05:41:21;15.40;81.60
53643;DHT22;39546;45.534;12.048;2022-10-14T05:47:23;15.40;81.70
53643;DHT22;39546;45.534;12.048;2022-10-14T05:53:27;15.40;81.70
53643;DHT22;39546;45.534;12.048;2022-10-14T05:59:30;15.30;81.60
53643;DHT22;39546;45.534;12.048;2022-10-14T06:05:35;15.30;81.60
53643;DHT22;39546;45.534;12.048;2022-10-14T06:11:38;15.30;81.70
53643;DHT22;39546;45.534;12.048;2022-10-14T06:17:40;15.20;81.70
53643;DHT22;39546;45.534;12.048;2022-10-14T06:23:43;15.20;81.80
53643;DHT22;39546;45.534;12.048;2022-10-14T06:29:45;15.20;81.90
53643;DHT22;39546;45.534;12.048;2022-10-14T06:35:48;15.30;81.80
53643;DHT22;39546;45.534;12.048;2022-10-14T06:41:50;15.30;81.70
53643;DHT22;39546;45.534;12.048;2022-10-14T06:47:55;15.30;81.90
53643;DHT22;39546;45.534;12.048;2022-10-14T06:53:57;15.40;81.80
53643;DHT22;39546;45.534;12.048;2022-10-14T06:59:59;15.50;81.80
53643;DHT22;39546;45.534;12.048;2022-10-14T07:06:04;15.60;81.70
53643;DHT22;39546;45.534;12.048;2022-10-14T07:12:07;15.60;81.60
53643;DHT22;39546;45.534;12.048;2022-10-14T07:18:09;15.70;81.60
53643;DHT22;39546;45.534;12.048;2022-10-14T07:24:11;15.70;81.50
53643;DHT22;39546;45.534;12.048;2022-10-14T07:30:13;15.80;81.50
53643;DHT22;39546;45.534;12.048;2022-10-14T07:36:17;16.00;81.40
53643;DHT22;39546;45.534;12.048;2022-10-14T07:42:19;16.10;81.40
53643;DHT22;39546;45.534;12.048;2022-10-14T07:48:21;16.20;81.50
53643;DHT22;39546;45.534;12.048;2022-10-14T07:54:25;16.30;81.70
53643;DHT22;39546;45.534;12.048;2022-10-14T08:00:30;16.40;81.70
53643;DHT22;39546;45.534;12.048;2022-10-14T08:06:32;16.50;81.70
53643;DHT22;39546;45.534;12.048;2022-10-14T08:12:35;16.60;81.80
53643;DHT22;39546;45.534;12.048;2022-10-14T08:18:37;16.70;81.50
53643;DHT22;39546;45.534;12.048;2022-10-14T08:24:39;16.80;81.30
53643;DHT22;39546;45.534;12.048;2022-10-14T08:30:41;16.90;81.50
53643;DHT22;39546;45.534;12.048;2022-10-14T08:36:43;17.00;81.60
53643;DHT22;39546;45.534;12.048;2022-10-14T08:43:00;17.00;80.90
53643;DHT22;39546;45.534;12.048;2022-10-14T08:49:29;17.20;80.70
53643;DHT22;39546;45.534;12.048;2022-10-14T08:55:41;17.30;80.10
53643;DHT22;39546;45.534;12.048;2022-10-14T09:02:07;17.30;79.60
53643;DHT22;39546;45.534;12.048;2022-10-14T09:08:15;17.40;79.20
53643;DHT22;39546;45.534;12.048;2022-10-14T09:14:21;17.60;78.90
53643;DHT22;39546;45.534;12.048;2022-10-14T09:20:25;17.70;78.50
53643;DHT22;39546;45.534;12.048;2022-10-14T09:26:44;17.80;78.10
53643;DHT22;39546;45.534;12.048;2022-10-14T09:32:52;17.80;77.90
53643;DHT22;39546;45.534;12.048;2022-10-14T09:38:55;17.90;77.70
53643;DHT22;39546;45.534;12.048;2022-10-14T09:51:30;18.20;76.70
53643;DHT22;39546;45.534;12.048;2022-10-14T09:57:33;18.30;76.00
53643;DHT22;39546;45.534;12.048;2022-10-14T10:03:35;18.40;76.00
53643;DHT22;39546;45.534;12.048;2022-10-14T10:16:32;18.80;75.00
53643;DHT22;39546;45.534;12.048;2022-10-14T10:22:37;18.90;75.00
53643;DHT22;39546;45.534;12.048;2022-10-14T10:28:44;19.00;74.70
53643;DHT22;39546;45.534;12.048;2022-10-14T10:54:09;19.70;72.20
53643;DHT22;39546;45.534;12.048;2022-10-14T11:00:19;19.80;72.20
53643;DHT22;39546;45.534;12.048;2022-10-14T11:06:37;20.10;71.30
53643;DHT22;39546;45.534;12.048;2022-10-14T11:13:08;20.20;69.90
53643;DHT22;39546;45.534;12.048;2022-10-14T11:25:39;20.40;68.90
53643;DHT22;39546;45.534;12.048;2022-10-14T11:39:25;20.80;68.70
53643;DHT22;39546;45.534;12.048;2022-10-14T11:51:49;21.10;67.50
53643;DHT22;39546;45.534;12.048;2022-10-14T11:58:02;21.10;67.70
53643;DHT22;39546;45.534;12.048;2022-10-14T12:04:18;21.00;67.10
53643;DHT22;39546;45.534;12.048;2022-10-14T12:10:31;20.90;67.10
53643;DHT22;39546;45.534;12.048;2022-10-14T12:16:38;20.90;66.50
53643;DHT22;39546;45.534;12.048;2022-10-14T12:22:42;20.80;66.50
53643;DHT22;39546;45.534;12.048;2022-10-14T12:28:45;20.80;66.50
53643;DHT22;39546;45.534;12.048;2022-10-14T12:40:51;20.80;66.30
53643;DHT22;39546;45.534;12.048;2022-10-14T12:46:53;20.90;66.00
53643;DHT22;39546;45.534;12.048;2022-10-14T12:53:00;20.90;66.10
53643;DHT22;39546;45.534;12.048;2022-10-14T12:59:07;20.90;65.70
53643;DHT22;39546;45.534;12.048;2022-10-14T13:05:44;20.90;65.70
53643;DHT22;39546;45.534;12.048;2022-10-14T13:24:45;21.00;65.20
53643;DHT22;39546;45.534;12.048;2022-10-14T13:31:11;21.00;65.10
53643;DHT22;39546;45.534;12.048;2022-10-14T13:43:37;21.10;65.10
53643;DHT22;39546;45.534;12.048;2022-10-14T13:49:41;21.10;64.40
53643;DHT22;39546;45.534;12.048;2022-10-14T13:55:47;21.00;64.70
53643;DHT22;39546;45.534;12.048;2022-10-14T14:01:54;21.00;64.70
53643;DHT22;39546;45.534;12.048;2022-10-14T14:07:57;20.90;64.60
53643;DHT22;39546;45.534;12.048;2022-10-14T14:14:07;20.90;64.80
53643;DHT22;39546;45.534;12.048;2022-10-14T14:20:10;20.80;64.70
53643;DHT22;39546;45.534;12.048;2022-10-14T14:26:12;20.80;65.00
53643;DHT22;39546;45.534;12.048;2022-10-14T14:32:16;20.80;65.10
53643;DHT22;39546;45.534;12.048;2022-10-14T14:38:34;20.90;65.20
53643;DHT22;39546;45.534;12.048;2022-10-14T14:44:38;20.80;65.30
53643;DHT22;39546;45.534;12.048;2022-10-14T14:50:42;20.80;65.50
53643;DHT22;39546;45.534;12.048;2022-10-14T14:56:51;20.80;65.60
53643;DHT22;39546;45.534;12.048;2022-10-14T15:03:00;20.90;65.80
53643;DHT22;39546;45.534;12.048;2022-10-14T15:09:13;21.00;65.80
53643;DHT22;39546;45.534;12.048;2022-10-14T15:15:35;21.00;65.80
53643;DHT22;39546;45.534;12.048;2022-10-14T15:28:38;21.10;65.80
53643;DHT22;39546;45.534;12.048;2022-10-14T15:35:13;21.20;65.90
53643;DHT22;39546;45.534;12.048;2022-10-14T15:41:15;21.30;65.80
53643;DHT22;39546;45.534;12.048;2022-10-14T15:47:18;21.60;65.40
53643;DHT22;39546;45.534;12.048;2022-10-14T15:53:20;21.30;65.50
53643;DHT22;39546;45.534;12.048;2022-10-14T15:59:23;20.90;66.30
53643;DHT22;39546;45.534;12.048;2022-10-14T16:05:27;20.70;67.00
53643;DHT22;39546;45.534;12.048;2022-10-14T16:11:30;20.40;67.40
53643;DHT22;39546;45.534;12.048;2022-10-14T16:17:32;20.30;67.70
53643;DHT22;39546;45.534;12.048;2022-10-14T16:23:34;20.20;68.10
53643;DHT22;39546;45.534;12.048;2022-10-14T16:29:37;20.10;68.40
53643;DHT22;39546;45.534;12.048;2022-10-14T16:35:41;20.00;68.50
53643;DHT22;39546;45.534;12.048;2022-10-14T16:41:56;19.90;68.80
53643;DHT22;39546;45.534;12.048;2022-10-14T16:47:59;19.80;69.00
53643;DHT22;39546;45.534;12.048;2022-10-14T16:54:01;19.70;69.20
53643;DHT22;39546;45.534;12.048;2022-10-14T17:00:16;19.70;69.30
53643;DHT22;39546;45.534;12.048;2022-10-14T17:06:19;19.50;69.50
53643;DHT22;39546;45.534;12.048;2022-10-14T17:12:21;19.40;69.70
53643;DHT22;39546;45.534;12.048;2022-10-14T17:18:23;19.40;69.90
53643;DHT22;39546;45.534;12.048;2022-10-14T17:24:28;19.30;70.00
53643;DHT22;39546;45.534;12.048;2022-10-14T17:30:30;19.30;70.20
53643;DHT22;39546;45.534;12.048;2022-10-14T17:36:32;19.20;70.50
53643;DHT22;39546;45.534;12.048;2022-10-14T17:42:36;19.10;70.70
53643;DHT22;39546;45.534;12.048;2022-10-14T17:48:40;19.00;70.90
53643;DHT22;39546;45.534;12.048;2022-10-14T17:54:43;19.00;70.90
53643;DHT22;39546;45.534;12.048;2022-10-14T18:00:45;19.00;71.00
53643;DHT22;39546;45.534;12.048;2022-10-14T18:06:48;18.90;71.10
53643;DHT22;39546;45.534;12.048;2022-10-14T18:12:50;18.90;71.30
53643;DHT22;39546;45.534;12.048;2022-10-14T18:18:53;18.90;71.50
53643;DHT22;39546;45.534;12.048;2022-10-14T18:24:55;18.80;71.60
53643;DHT22;39546;45.534;12.048;2022-10-14T18:31:03;18.70;71.80
53643;DHT22;39546;45.534;12.048;2022-10-14T18:37:05;18.70;72.20
53643;DHT22;39546;45.534;12.048;2022-10-14T18:43:07;18.60;72.50
53643;DHT22;39546;45.534;12.048;2022-10-14T18:49:10;18.60;73.00
53643;DHT22;39546;45.534;12.048;2022-10-14T18:55:12;18.50;73.40
53643;DHT22;39546;45.534;12.048;2022-10-14T19:01:15;18.50;73.80
53643;DHT22;39546;45.534;12.048;2022-10-14T19:07:18;18.40;74.20
53643;DHT22;39546;45.534;12.048;2022-10-14T19:13:20;18.30;74.80
53643;DHT22;39546;45.534;12.048;2022-10-14T19:19:22;18.30;75.00
53643;DHT22;39546;45.534;12.048;2022-10-14T19:25:24;18.20;75.00
53643;DHT22;39546;45.534;12.048;2022-10-14T19:31:29;18.20;74.90
53643;DHT22;39546;45.534;12.048;2022-10-14T19:37:32;18.20;75.00
53643;DHT22;39546;45.534;12.048;2022-10-14T19:43:34;18.10;75.10
53643;DHT22;39546;45.534;12.048;2022-10-14T19:49:36;18.00;75.70
53643;DHT22;39546;45.534;12.048;2022-10-14T19:55:38;17.90;75.70
53643;DHT22;39546;45.534;12.048;2022-10-14T20:01:40;17.90;76.20
53643;DHT22;39546;45.534;12.048;2022-10-14T20:07:43;17.80;76.10
53643;DHT22;39546;45.534;12.048;2022-10-14T20:13:45;17.80;76.10
53643;DHT22;39546;45.534;12.048;2022-10-14T20:19:47;17.80;76.30
53643;DHT22;39546;45.534;12.048;2022-10-14T20:25:58;17.70;76.30
53643;DHT22;39546;45.534;12.048;2022-10-14T20:32:10;17.70;76.60
53643;DHT22;39546;45.534;12.048;2022-10-14T20:38:13;17.70;76.60
53643;DHT22;39546;45.534;12.048;2022-10-14T20:44:15;17.70;76.80
53643;DHT22;39546;45.534;12.048;2022-10-14T20:50:18;17.70;76.70
53643;DHT22;39546;45.534;12.048;2022-10-14T20:56:20;17.60;77.00
53643;DHT22;39546;45.534;12.048;2022-10-14T21:02:22;17.60;77.30
53643;DHT22;39546;45.534;12.048;2022-10-14T21:08:25;17.50;77.20
53643;DHT22;39546;45.534;12.048;2022-10-14T21:14:27;17.50;77.30
53643;DHT22;39546;45.534;12.048;2022-10-14T21:20:33;17.40;77.60
53643;DHT22;39546;45.534;12.048;2022-10-14T21:26:35;17.40;78.00
53643;DHT22;39546;45.534;12.048;2022-10-14T21:32:37;17.40;78.00
53643;DHT22;39546;45.534;12.048;2022-10-14T21:38:40;17.30;77.90
53643;DHT22;39546;45.534;12.048;2022-10-14T21:44:42;17.30;78.20
53643;DHT22;39546;45.534;12.048;2022-10-14T21:50:44;17.30;78.20
53643;DHT22;39546;45.534;12.048;2022-10-14T21:56:46;17.20;78.20
53643;DHT22;39546;45.534;12.048;2022-10-14T22:02:53;17.20;78.40
53643;DHT22;39546;45.534;12.048;2022-10-14T22:08:57;17.20;78.30
53643;DHT22;39546;45.534;12.048;2022-10-14T22:15:00;17.00;78.30
53643;DHT22;39546;45.534;12.048;2022-10-14T22:21:04;16.90;78.40
53643;DHT22;39546;45.534;12.048;2022-10-14T22:27:07;17.00;78.40
53643;DHT22;39546;45.534;12.048;2022-10-14T22:33:09;16.90;78.40
53643;DHT22;39546;45.534;12.048;2022-10-14T22:39:16;16.80;78.50
53643;DHT22;39546;45.534;12.048;2022-10-14T22:45:19;16.80;78.50
53643;DHT22;39546;45.534;12.048;2022-10-14T22:51:25;16.80;78.50
53643;DHT22;39546;45.534;12.048;2022-10-14T22:57:28;16.80;78.70
53643;DHT22;39546;45.534;12.048;2022-10-14T23:03:30;16.80;79.00
53643;DHT22;39546;45.534;12.048;2022-10-14T23:09:34;16.80;78.90
53643;DHT22;39546;45.534;12.048;2022-10-14T23:15:36;16.80;78.90
53643;DHT22;39546;45.534;12.048;2022-10-14T23:21:38;16.80;78.90
53643;DHT22;39546;45.534;12.048;2022-10-14T23:27:40;16.80;79.20
53643;DHT22;39546;45.534;12.048;2022-10-14T23:33:42;16.70;79.30
53643;DHT22;39546;45.534;12.048;2022-10-14T23:39:44;16.70;79.50
53643;DHT22;39546;45.534;12.048;2022-10-14T23:45:46;16.60;80.20
53643;DHT22;39546;45.534;12.048;2022-10-14T23:51:48;16.60;80.20
53643;DHT22;39546;45.534;12.048;2022-10-14T23:57:50;16.60;80.00
